NSZ3GC EGKK-EKCH
Flight info
| Callsign | NSZ3GC |
|---|---|
| Flight time | 1h 25m |
| Altitude | 37000 |
| Route | FRANE M604 PAAVO Q295 SOMVA DCT MAVAS DCT DOSUR DCT TALSA P729 TUDLO |
| Aircraft | B738/M-SDE3GHIJ1LRWXY/LB1 |
Departure
| Time | 2026-04-25 19:34 |
|---|---|
| Airport | London Gatwick Airport (EGKK) |
Arrival
| Time | 2026-04-25 21:00 |
|---|---|
| Airport | Copenhagen Kastrup Airport (EKCH) |
| Time | Latitude | Longitude | Altitude | Speed | Heading |
|---|---|---|---|---|---|
| 2026-04-25 18:54 | 51.15477 | -0.17030 | 204 ft | 0 kts | 348° |
| 2026-04-25 19:20 | 51.15475 | -0.17029 | 215 ft | 2 kts | 348° |
| 2026-04-25 19:21 | 51.15458 | -0.17024 | 208 ft | 2 kts | 349° |
| 2026-04-25 19:21 | 51.15428 | -0.17009 | 211 ft | 2 kts | 288° |
| 2026-04-25 19:21 | 51.15427 | -0.16988 | 215 ft | 1 kts | 260° |
| 2026-04-25 19:22 | 51.15428 | -0.16985 | 214 ft | 0 kts | 259° |
| 2026-04-25 19:24 | 51.15427 | -0.16989 | 204 ft | 1 kts | 259° |
| 2026-04-25 19:24 | 51.15409 | -0.17115 | 204 ft | 10 kts | 254° |
| 2026-04-25 19:25 | 51.15329 | -0.17373 | 209 ft | 12 kts | 216° |
| 2026-04-25 19:25 | 51.15294 | -0.17509 | 204 ft | 20 kts | 258° |
| 2026-04-25 19:25 | 51.15258 | -0.17770 | 213 ft | 27 kts | 257° |
| 2026-04-25 19:26 | 51.15218 | -0.18058 | 210 ft | 26 kts | 257° |
| 2026-04-25 19:26 | 51.15184 | -0.18336 | 209 ft | 26 kts | 261° |
| 2026-04-25 19:26 | 51.15145 | -0.18636 | 204 ft | 29 kts | 257° |
| 2026-04-25 19:26 | 51.15102 | -0.18943 | 207 ft | 27 kts | 258° |
| 2026-04-25 19:27 | 51.15064 | -0.19230 | 204 ft | 26 kts | 257° |
| 2026-04-25 19:27 | 51.15038 | -0.19411 | 208 ft | 25 kts | 257° |
| 2026-04-25 19:27 | 51.14990 | -0.19752 | 204 ft | 23 kts | 257° |
| 2026-04-25 19:27 | 51.14957 | -0.19994 | 204 ft | 22 kts | 258° |
| 2026-04-25 19:28 | 51.14925 | -0.20231 | 208 ft | 22 kts | 258° |
| 2026-04-25 19:28 | 51.14894 | -0.20461 | 207 ft | 21 kts | 258° |
| 2026-04-25 19:28 | 51.14863 | -0.20684 | 204 ft | 21 kts | 257° |
| 2026-04-25 19:28 | 51.14831 | -0.20911 | 206 ft | 21 kts | 257° |
| 2026-04-25 19:29 | 51.14798 | -0.21134 | 214 ft | 21 kts | 248° |
| 2026-04-25 19:29 | 51.14761 | -0.21346 | 204 ft | 17 kts | 253° |
| 2026-04-25 19:29 | 51.14692 | -0.21397 | 207 ft | 11 kts | 162° |
| 2026-04-25 19:29 | 51.14640 | -0.21345 | 213 ft | 4 kts | 160° |
| 2026-04-25 19:30 | 51.14613 | -0.21329 | 208 ft | 3 kts | 168° |
| 2026-04-25 19:30 | 51.14610 | -0.21328 | 204 ft | 0 kts | 168° |
| 2026-04-25 19:33 | 51.14596 | -0.21323 | 207 ft | 8 kts | 166° |
| 2026-04-25 19:33 | 51.14537 | -0.21266 | 204 ft | 12 kts | 130° |
| 2026-04-25 19:33 | 51.14531 | -0.21094 | 210 ft | 34 kts | 78° |
| 2026-04-25 19:34 | 51.14629 | -0.20380 | 211 ft | 98 kts | 77° |
| 2026-04-25 19:34 | 51.14812 | -0.19030 | 209 ft | 150 kts | 77° |
| 2026-04-25 19:34 | 51.15053 | -0.17330 | 566 ft | 162 kts | 79° |
| 2026-04-25 19:34 | 51.15307 | -0.15535 | 1159 ft | 166 kts | 78° |
| 2026-04-25 19:35 | 51.15554 | -0.13734 | 1799 ft | 166 kts | 77° |
| 2026-04-25 19:35 | 51.15808 | -0.11919 | 2331 ft | 175 kts | 77° |
| 2026-04-25 19:35 | 51.16087 | -0.09885 | 2574 ft | 200 kts | 77° |
| 2026-04-25 19:35 | 51.16391 | -0.07619 | 2794 ft | 219 kts | 77° |
| 2026-04-25 19:36 | 51.16726 | -0.05161 | 3068 ft | 233 kts | 77° |
| 2026-04-25 19:36 | 51.16954 | -0.02547 | 3382 ft | 248 kts | 88° |
| 2026-04-25 19:36 | 51.16911 | 0.00289 | 3815 ft | 261 kts | 91° |
| 2026-04-25 19:36 | 51.16821 | 0.03188 | 4527 ft | 263 kts | 91° |
| 2026-04-25 19:37 | 51.16743 | 0.06078 | 4930 ft | 264 kts | 90° |
| 2026-04-25 19:37 | 51.16678 | 0.09028 | 5025 ft | 269 kts | 90° |
| 2026-04-25 19:37 | 51.16617 | 0.12012 | 5036 ft | 268 kts | 90° |
| 2026-04-25 19:37 | 51.16559 | 0.14958 | 5033 ft | 265 kts | 90° |
| 2026-04-25 19:38 | 51.16542 | 0.17884 | 5043 ft | 263 kts | 88° |
| 2026-04-25 19:38 | 51.16554 | 0.20798 | 5044 ft | 262 kts | 88° |
| 2026-04-25 19:38 | 51.16567 | 0.23689 | 5047 ft | 261 kts | 88° |
| 2026-04-25 19:38 | 51.16576 | 0.26588 | 5059 ft | 262 kts | 88° |
| 2026-04-25 19:39 | 51.16583 | 0.29498 | 5061 ft | 264 kts | 88° |
| 2026-04-25 19:39 | 51.16586 | 0.32436 | 5062 ft | 265 kts | 88° |
| 2026-04-25 19:39 | 51.16589 | 0.35379 | 5063 ft | 267 kts | 88° |
| 2026-04-25 19:39 | 51.16592 | 0.38340 | 5059 ft | 268 kts | 88° |
| 2026-04-25 19:40 | 51.16594 | 0.41314 | 5055 ft | 268 kts | 88° |
| 2026-04-25 19:40 | 51.16595 | 0.44284 | 5049 ft | 268 kts | 88° |
| 2026-04-25 19:40 | 51.16594 | 0.47257 | 5051 ft | 268 kts | 88° |
| 2026-04-25 19:40 | 51.16606 | 0.50212 | 5051 ft | 265 kts | 83° |
| 2026-04-25 19:41 | 51.17144 | 0.52941 | 5056 ft | 258 kts | 54° |
| 2026-04-25 19:41 | 51.18420 | 0.54920 | 5064 ft | 258 kts | 30° |
| 2026-04-25 19:41 | 51.20074 | 0.56001 | 5065 ft | 259 kts | 15° |
| 2026-04-25 19:41 | 51.20663 | 0.56241 | 5065 ft | 259 kts | 13° |
| 2026-04-25 19:42 | 51.23592 | 0.57255 | 5046 ft | 258 kts | 12° |
| 2026-04-25 19:42 | 51.25354 | 0.57874 | 5195 ft | 262 kts | 13° |
| 2026-04-25 19:42 | 51.27145 | 0.58524 | 5826 ft | 265 kts | 13° |
| 2026-04-25 19:42 | 51.28956 | 0.59192 | 6505 ft | 270 kts | 13° |
| 2026-04-25 19:43 | 51.30794 | 0.59876 | 7167 ft | 273 kts | 13° |
| 2026-04-25 19:43 | 51.32648 | 0.60576 | 7895 ft | 275 kts | 13° |
| 2026-04-25 19:43 | 51.34511 | 0.61283 | 8593 ft | 277 kts | 13° |
| 2026-04-25 19:43 | 51.36401 | 0.62001 | 9330 ft | 281 kts | 12° |
| 2026-04-25 19:44 | 51.38310 | 0.62726 | 9984 ft | 284 kts | 12° |
| 2026-04-25 19:44 | 51.40245 | 0.63456 | 10192 ft | 286 kts | 12° |
| 2026-04-25 19:44 | 51.42192 | 0.64187 | 10210 ft | 288 kts | 12° |
| 2026-04-25 19:44 | 51.44138 | 0.64918 | 10216 ft | 288 kts | 12° |
| 2026-04-25 19:45 | 51.46091 | 0.65653 | 10213 ft | 288 kts | 12° |
| 2026-04-25 19:45 | 51.48040 | 0.66387 | 10214 ft | 288 kts | 12° |
| 2026-04-25 19:45 | 51.49989 | 0.67122 | 10216 ft | 288 kts | 12° |
| 2026-04-25 19:45 | 51.51938 | 0.67857 | 10216 ft | 288 kts | 12° |
| 2026-04-25 19:46 | 51.53900 | 0.68599 | 10247 ft | 294 kts | 12° |
| 2026-04-25 19:46 | 51.55963 | 0.69377 | 10419 ft | 316 kts | 12° |
| 2026-04-25 19:46 | 51.58161 | 0.70208 | 10817 ft | 329 kts | 12° |
| 2026-04-25 19:46 | 51.60404 | 0.71058 | 11492 ft | 333 kts | 12° |
| 2026-04-25 19:47 | 51.62661 | 0.71924 | 12246 ft | 335 kts | 14° |
| 2026-04-25 19:47 | 51.64796 | 0.73463 | 12961 ft | 341 kts | 31° |
| 2026-04-25 19:47 | 51.66734 | 0.75670 | 13727 ft | 344 kts | 35° |
| 2026-04-25 19:47 | 51.68663 | 0.78029 | 14419 ft | 349 kts | 36° |
| 2026-04-25 19:48 | 51.70568 | 0.80398 | 15078 ft | 353 kts | 36° |
| 2026-04-25 19:48 | 51.72546 | 0.82870 | 15785 ft | 357 kts | 36° |
| 2026-04-25 19:48 | 51.74518 | 0.85346 | 16481 ft | 361 kts | 36° |
| 2026-04-25 19:48 | 51.76508 | 0.87851 | 17143 ft | 365 kts | 36° |
| 2026-04-25 19:49 | 51.78497 | 0.90362 | 17796 ft | 370 kts | 36° |
| 2026-04-25 19:49 | 51.79205 | 0.91258 | 18038 ft | 371 kts | 36° |
| 2026-04-25 19:49 | 51.82615 | 0.95585 | 19089 ft | 377 kts | 36° |
| 2026-04-25 19:49 | 51.84684 | 0.98226 | 19697 ft | 380 kts | 36° |
| 2026-04-25 19:50 | 51.88712 | 1.03384 | 20820 ft | 387 kts | 36° |
| 2026-04-25 19:50 | 51.90830 | 1.06105 | 21379 ft | 391 kts | 36° |
| 2026-04-25 19:50 | 51.92970 | 1.08857 | 21932 ft | 394 kts | 36° |
| 2026-04-25 19:51 | 51.95126 | 1.11634 | 22484 ft | 398 kts | 36° |
| 2026-04-25 19:51 | 51.97259 | 1.14533 | 23007 ft | 403 kts | 41° |
| 2026-04-25 19:51 | 51.99141 | 1.17954 | 23469 ft | 411 kts | 52° |
| 2026-04-25 19:51 | 52.00772 | 1.21777 | 23936 ft | 416 kts | 54° |
| 2026-04-25 19:52 | 52.02385 | 1.25697 | 24375 ft | 419 kts | 54° |
| 2026-04-25 19:52 | 52.03995 | 1.29649 | 24825 ft | 421 kts | 55° |
| 2026-04-25 19:52 | 52.05613 | 1.33619 | 25279 ft | 423 kts | 55° |
| 2026-04-25 19:52 | 52.07250 | 1.37617 | 25712 ft | 426 kts | 55° |
| 2026-04-25 19:53 | 52.08900 | 1.41633 | 26128 ft | 428 kts | 55° |
| 2026-04-25 19:53 | 52.10557 | 1.45656 | 26543 ft | 431 kts | 55° |
| 2026-04-25 19:53 | 52.12235 | 1.49726 | 26950 ft | 433 kts | 55° |
| 2026-04-25 19:53 | 52.13921 | 1.53817 | 27379 ft | 435 kts | 55° |
| 2026-04-25 19:54 | 52.15606 | 1.57907 | 27772 ft | 438 kts | 55° |
| 2026-04-25 19:54 | 52.17310 | 1.62048 | 28142 ft | 441 kts | 55° |
| 2026-04-25 19:54 | 52.19019 | 1.66210 | 28510 ft | 443 kts | 55° |
| 2026-04-25 19:54 | 52.19600 | 1.67626 | 28631 ft | 444 kts | 55° |
| 2026-04-25 19:55 | 52.22464 | 1.74620 | 29233 ft | 448 kts | 55° |
| 2026-04-25 19:55 | 52.24204 | 1.78854 | 29576 ft | 450 kts | 55° |
| 2026-04-25 19:55 | 52.25374 | 1.81650 | 29776 ft | 453 kts | 54° |
| 2026-04-25 19:55 | 52.27777 | 1.87330 | 30209 ft | 456 kts | 54° |
| 2026-04-25 19:56 | 52.28975 | 1.90155 | 30458 ft | 456 kts | 54° |
| 2026-04-25 19:56 | 52.30777 | 1.94409 | 30766 ft | 457 kts | 54° |
| 2026-04-25 19:56 | 52.32583 | 1.98689 | 31057 ft | 458 kts | 55° |
| 2026-04-25 19:56 | 52.34302 | 2.02774 | 31421 ft | 457 kts | 55° |
| 2026-04-25 19:57 | 52.36092 | 2.07045 | 31847 ft | 455 kts | 55° |
| 2026-04-25 19:57 | 52.37876 | 2.11311 | 32236 ft | 453 kts | 55° |
| 2026-04-25 19:57 | 52.39654 | 2.15574 | 32574 ft | 453 kts | 54° |
| 2026-04-25 19:57 | 52.41506 | 2.20023 | 32946 ft | 452 kts | 55° |
| 2026-04-25 19:58 | 52.43217 | 2.24139 | 33300 ft | 451 kts | 55° |
| 2026-04-25 19:58 | 52.44953 | 2.28325 | 33661 ft | 450 kts | 55° |
| 2026-04-25 19:58 | 52.46709 | 2.32562 | 33996 ft | 449 kts | 55° |
| 2026-04-25 19:58 | 52.48462 | 2.36802 | 34338 ft | 448 kts | 55° |
| 2026-04-25 19:59 | 52.50207 | 2.41028 | 34625 ft | 448 kts | 55° |
| 2026-04-25 19:59 | 52.51951 | 2.45256 | 34937 ft | 446 kts | 55° |
| 2026-04-25 19:59 | 52.53685 | 2.49473 | 35179 ft | 446 kts | 55° |
| 2026-04-25 19:59 | 52.55418 | 2.53694 | 35469 ft | 445 kts | 55° |
| 2026-04-25 20:00 | 52.57150 | 2.57918 | 35699 ft | 445 kts | 56° |
| 2026-04-25 20:00 | 52.58290 | 2.60706 | 35887 ft | 445 kts | 54° |
| 2026-04-25 20:00 | 52.60608 | 2.66365 | 36157 ft | 445 kts | 56° |
| 2026-04-25 20:00 | 52.62336 | 2.70593 | 36414 ft | 445 kts | 55° |
| 2026-04-25 20:01 | 52.65781 | 2.79055 | 36869 ft | 445 kts | 54° |
| 2026-04-25 20:01 | 52.67501 | 2.83289 | 37089 ft | 444 kts | 55° |
| 2026-04-25 20:01 | 52.69215 | 2.87512 | 37290 ft | 444 kts | 54° |
| 2026-04-25 20:02 | 52.72676 | 2.96061 | 37275 ft | 452 kts | 54° |
| 2026-04-25 20:02 | 52.76014 | 3.04600 | 37279 ft | 459 kts | 56° |
| 2026-04-25 20:03 | 52.79433 | 3.13577 | 37278 ft | 464 kts | 56° |
| 2026-04-25 20:03 | 52.82883 | 3.22645 | 37273 ft | 467 kts | 56° |
| 2026-04-25 20:04 | 52.86352 | 3.31766 | 37268 ft | 469 kts | 56° |
| 2026-04-25 20:04 | 52.89827 | 3.40919 | 37273 ft | 469 kts | 56° |
| 2026-04-25 20:05 | 52.93294 | 3.50077 | 37272 ft | 469 kts | 56° |
| 2026-04-25 20:05 | 52.96749 | 3.59240 | 37285 ft | 468 kts | 56° |
| 2026-04-25 20:06 | 53.00183 | 3.68381 | 37267 ft | 467 kts | 56° |
| 2026-04-25 20:06 | 53.03605 | 3.77525 | 37270 ft | 466 kts | 56° |
| 2026-04-25 20:07 | 53.07014 | 3.86666 | 37268 ft | 464 kts | 56° |
| 2026-04-25 20:07 | 53.10386 | 3.95738 | 37269 ft | 464 kts | 56° |
| 2026-04-25 20:08 | 53.13686 | 4.04650 | 37269 ft | 463 kts | 56° |
| 2026-04-25 20:08 | 53.17036 | 4.13727 | 37263 ft | 463 kts | 56° |
| 2026-04-25 20:09 | 53.20399 | 4.22875 | 37268 ft | 463 kts | 56° |
| 2026-04-25 20:09 | 53.23758 | 4.32047 | 37257 ft | 463 kts | 56° |
| 2026-04-25 20:10 | 53.27108 | 4.41228 | 37259 ft | 463 kts | 56° |
| 2026-04-25 20:10 | 53.30450 | 4.50418 | 37258 ft | 463 kts | 56° |
| 2026-04-25 20:11 | 53.33783 | 4.59621 | 37248 ft | 463 kts | 56° |
| 2026-04-25 20:11 | 53.37110 | 4.68837 | 37245 ft | 463 kts | 56° |
| 2026-04-25 20:12 | 53.40433 | 4.78078 | 37239 ft | 463 kts | 56° |
| 2026-04-25 20:12 | 53.43187 | 4.85763 | 37240 ft | 463 kts | 56° |
| 2026-04-25 20:13 | 53.47056 | 4.96599 | 37245 ft | 463 kts | 57° |
| 2026-04-25 20:13 | 53.50270 | 5.05637 | 37244 ft | 463 kts | 57° |
| 2026-04-25 20:14 | 53.53565 | 5.14937 | 37242 ft | 463 kts | 57° |
| 2026-04-25 20:14 | 53.56851 | 5.24246 | 37243 ft | 463 kts | 57° |
| 2026-04-25 20:15 | 53.60125 | 5.33557 | 37235 ft | 462 kts | 57° |
| 2026-04-25 20:15 | 53.63411 | 5.42937 | 37241 ft | 461 kts | 57° |
| 2026-04-25 20:16 | 53.66642 | 5.52194 | 37225 ft | 460 kts | 57° |
| 2026-04-25 20:16 | 53.69877 | 5.61500 | 37228 ft | 459 kts | 57° |
| 2026-04-25 20:17 | 53.73077 | 5.70735 | 37224 ft | 458 kts | 57° |
| 2026-04-25 20:17 | 53.76284 | 5.80029 | 37229 ft | 458 kts | 57° |
| 2026-04-25 20:18 | 53.79531 | 5.89473 | 37209 ft | 457 kts | 57° |
| 2026-04-25 20:18 | 53.82667 | 5.98629 | 37218 ft | 457 kts | 57° |
| 2026-04-25 20:19 | 53.85748 | 6.07657 | 37225 ft | 457 kts | 57° |
| 2026-04-25 20:19 | 53.88919 | 6.16986 | 37230 ft | 457 kts | 57° |
| 2026-04-25 20:20 | 53.92087 | 6.26339 | 37231 ft | 457 kts | 57° |
| 2026-04-25 20:20 | 53.95250 | 6.35714 | 37243 ft | 458 kts | 57° |
| 2026-04-25 20:21 | 53.98411 | 6.45117 | 37229 ft | 458 kts | 57° |
| 2026-04-25 20:21 | 54.01557 | 6.54515 | 37225 ft | 459 kts | 57° |
| 2026-04-25 20:22 | 54.03662 | 6.60823 | 37220 ft | 459 kts | 57° |
| 2026-04-25 20:22 | 54.07843 | 6.73409 | 37232 ft | 459 kts | 56° |
| 2026-04-25 20:23 | 54.10977 | 6.82873 | 37221 ft | 458 kts | 56° |
| 2026-04-25 20:23 | 54.14091 | 6.92316 | 37224 ft | 452 kts | 56° |
| 2026-04-25 20:24 | 54.17037 | 7.01300 | 37204 ft | 443 kts | 56° |
| 2026-04-25 20:24 | 54.20038 | 7.10470 | 37213 ft | 441 kts | 56° |
| 2026-04-25 20:25 | 54.23016 | 7.19601 | 37212 ft | 439 kts | 56° |
| 2026-04-25 20:25 | 54.25981 | 7.28726 | 37203 ft | 439 kts | 56° |
| 2026-04-25 20:26 | 54.28945 | 7.37883 | 37217 ft | 440 kts | 55° |
| 2026-04-25 20:26 | 54.31905 | 7.47065 | 37237 ft | 441 kts | 55° |
| 2026-04-25 20:27 | 54.34864 | 7.56280 | 37205 ft | 442 kts | 55° |
| 2026-04-25 20:27 | 54.37807 | 7.65485 | 37194 ft | 443 kts | 55° |
| 2026-04-25 20:28 | 54.40759 | 7.74750 | 37185 ft | 442 kts | 55° |
| 2026-04-25 20:28 | 54.43702 | 7.84023 | 37184 ft | 442 kts | 55° |
| 2026-04-25 20:29 | 54.46633 | 7.93311 | 37185 ft | 442 kts | 56° |
| 2026-04-25 20:29 | 54.49313 | 8.02575 | 37196 ft | 443 kts | 57° |
| 2026-04-25 20:30 | 54.51973 | 8.12154 | 37178 ft | 444 kts | 57° |
| 2026-04-25 20:30 | 54.54639 | 8.21728 | 37154 ft | 443 kts | 57° |
| 2026-04-25 20:31 | 54.57311 | 8.31275 | 37142 ft | 441 kts | 56° |
| 2026-04-25 20:31 | 54.59974 | 8.40790 | 37144 ft | 440 kts | 56° |
| 2026-04-25 20:32 | 54.62626 | 8.50298 | 37138 ft | 439 kts | 57° |
| 2026-04-25 20:32 | 54.65267 | 8.59804 | 37141 ft | 439 kts | 57° |
| 2026-04-25 20:33 | 54.67898 | 8.69313 | 37156 ft | 439 kts | 56° |
| 2026-04-25 20:33 | 54.69658 | 8.75697 | 37176 ft | 439 kts | 56° |
| 2026-04-25 20:34 | 54.73156 | 8.88439 | 36904 ft | 445 kts | 56° |
| 2026-04-25 20:34 | 54.74483 | 8.93287 | 36599 ft | 445 kts | 56° |
| 2026-04-25 20:34 | 54.75801 | 8.98121 | 36165 ft | 443 kts | 56° |
| 2026-04-25 20:35 | 54.77033 | 9.02658 | 35800 ft | 442 kts | 56° |
| 2026-04-25 20:35 | 54.78342 | 9.07480 | 35390 ft | 442 kts | 56° |
| 2026-04-25 20:35 | 54.79647 | 9.12293 | 34991 ft | 443 kts | 56° |
| 2026-04-25 20:35 | 54.80955 | 9.17128 | 34566 ft | 443 kts | 56° |
| 2026-04-25 20:36 | 54.82267 | 9.21983 | 34144 ft | 444 kts | 56° |
| 2026-04-25 20:36 | 54.83556 | 9.26768 | 33731 ft | 445 kts | 55° |
| 2026-04-25 20:36 | 54.84868 | 9.31640 | 33265 ft | 446 kts | 55° |
| 2026-04-25 20:36 | 54.86181 | 9.36532 | 32817 ft | 447 kts | 55° |
| 2026-04-25 20:37 | 54.87493 | 9.41433 | 32385 ft | 449 kts | 55° |
| 2026-04-25 20:37 | 54.88819 | 9.46387 | 31964 ft | 456 kts | 56° |
| 2026-04-25 20:37 | 54.90137 | 9.51314 | 31586 ft | 460 kts | 55° |
| 2026-04-25 20:37 | 54.91457 | 9.56282 | 31066 ft | 460 kts | 56° |
| 2026-04-25 20:38 | 54.92792 | 9.61328 | 30634 ft | 457 kts | 56° |
| 2026-04-25 20:38 | 54.94118 | 9.66350 | 30200 ft | 457 kts | 56° |
| 2026-04-25 20:38 | 54.95453 | 9.71402 | 29717 ft | 463 kts | 56° |
| 2026-04-25 20:38 | 54.96806 | 9.76522 | 29228 ft | 468 kts | 56° |
| 2026-04-25 20:39 | 54.98164 | 9.81678 | 28735 ft | 468 kts | 56° |
| 2026-04-25 20:39 | 54.99517 | 9.86840 | 28323 ft | 469 kts | 55° |
| 2026-04-25 20:39 | 55.00863 | 9.91984 | 27847 ft | 469 kts | 55° |
| 2026-04-25 20:39 | 55.01317 | 9.93726 | 27672 ft | 469 kts | 55° |
| 2026-04-25 20:40 | 55.03490 | 10.02067 | 26917 ft | 469 kts | 55° |
| 2026-04-25 20:40 | 55.04838 | 10.07256 | 26450 ft | 469 kts | 55° |
| 2026-04-25 20:40 | 55.06183 | 10.12445 | 25982 ft | 470 kts | 55° |
| 2026-04-25 20:40 | 55.07529 | 10.17644 | 25516 ft | 471 kts | 55° |
| 2026-04-25 20:41 | 55.08877 | 10.22863 | 25059 ft | 472 kts | 56° |
| 2026-04-25 20:41 | 55.10222 | 10.28083 | 24596 ft | 470 kts | 55° |
| 2026-04-25 20:41 | 55.11103 | 10.31524 | 24248 ft | 465 kts | 55° |
| 2026-04-25 20:41 | 55.12846 | 10.38352 | 23613 ft | 457 kts | 54° |
| 2026-04-25 20:42 | 55.13702 | 10.41704 | 23264 ft | 456 kts | 54° |
| 2026-04-25 20:42 | 55.15404 | 10.48371 | 22616 ft | 451 kts | 54° |
| 2026-04-25 20:42 | 55.16676 | 10.53363 | 22153 ft | 447 kts | 54° |
| 2026-04-25 20:42 | 55.17934 | 10.58312 | 21702 ft | 444 kts | 54° |
| 2026-04-25 20:43 | 55.18765 | 10.61586 | 21403 ft | 442 kts | 54° |
| 2026-04-25 20:43 | 55.20008 | 10.66490 | 20959 ft | 440 kts | 54° |
| 2026-04-25 20:43 | 55.21258 | 10.71434 | 20517 ft | 437 kts | 54° |
| 2026-04-25 20:43 | 55.22469 | 10.76233 | 20094 ft | 435 kts | 54° |
| 2026-04-25 20:44 | 55.23686 | 10.81068 | 19659 ft | 433 kts | 54° |
| 2026-04-25 20:44 | 55.24897 | 10.85892 | 19224 ft | 431 kts | 54° |
| 2026-04-25 20:44 | 55.26098 | 10.90687 | 18799 ft | 428 kts | 54° |
| 2026-04-25 20:44 | 55.27224 | 10.95496 | 18274 ft | 425 kts | 59° |
| 2026-04-25 20:45 | 55.27901 | 11.00317 | 17489 ft | 430 kts | 68° |
| 2026-04-25 20:45 | 55.28439 | 11.05299 | 17343 ft | 407 kts | 66° |
| 2026-04-25 20:45 | 55.28959 | 11.10061 | 16990 ft | 391 kts | 65° |
| 2026-04-25 20:45 | 55.29495 | 11.14717 | 16158 ft | 388 kts | 65° |
| 2026-04-25 20:46 | 55.30048 | 11.19333 | 15364 ft | 386 kts | 65° |
| 2026-04-25 20:46 | 55.30599 | 11.23908 | 14678 ft | 381 kts | 65° |
| 2026-04-25 20:46 | 55.31136 | 11.28376 | 14039 ft | 376 kts | 65° |
| 2026-04-25 20:46 | 55.31680 | 11.32910 | 13295 ft | 372 kts | 66° |
| 2026-04-25 20:47 | 55.32206 | 11.37321 | 12627 ft | 366 kts | 67° |
| 2026-04-25 20:47 | 55.32702 | 11.41561 | 12461 ft | 343 kts | 67° |
| 2026-04-25 20:47 | 55.33171 | 11.45594 | 11960 ft | 334 kts | 68° |
| 2026-04-25 20:47 | 55.33641 | 11.49561 | 11293 ft | 330 kts | 69° |
| 2026-04-25 20:48 | 55.34108 | 11.53484 | 10673 ft | 326 kts | 70° |
| 2026-04-25 20:48 | 55.34562 | 11.57328 | 10280 ft | 315 kts | 71° |
| 2026-04-25 20:48 | 55.34987 | 11.61002 | 10160 ft | 296 kts | 71° |
| 2026-04-25 20:48 | 55.35381 | 11.64412 | 9894 ft | 285 kts | 71° |
| 2026-04-25 20:49 | 55.35778 | 11.67801 | 9398 ft | 282 kts | 71° |
| 2026-04-25 20:49 | 55.36170 | 11.71155 | 8918 ft | 279 kts | 71° |
| 2026-04-25 20:49 | 55.36558 | 11.74483 | 8455 ft | 276 kts | 71° |
| 2026-04-25 20:49 | 55.36939 | 11.77766 | 8119 ft | 272 kts | 72° |
| 2026-04-25 20:50 | 55.37312 | 11.80999 | 7806 ft | 269 kts | 72° |
| 2026-04-25 20:50 | 55.37680 | 11.84203 | 7537 ft | 266 kts | 72° |
| 2026-04-25 20:50 | 55.38048 | 11.87397 | 7266 ft | 267 kts | 72° |
| 2026-04-25 20:50 | 55.38414 | 11.90593 | 6993 ft | 268 kts | 72° |
| 2026-04-25 20:51 | 55.38782 | 11.93814 | 6718 ft | 267 kts | 72° |
| 2026-04-25 20:51 | 55.39145 | 11.97010 | 6449 ft | 265 kts | 72° |
| 2026-04-25 20:51 | 55.39494 | 12.00099 | 6174 ft | 264 kts | 73° |
| 2026-04-25 20:51 | 55.39842 | 12.03173 | 5903 ft | 263 kts | 73° |
| 2026-04-25 20:52 | 55.40194 | 12.06308 | 5623 ft | 258 kts | 73° |
| 2026-04-25 20:52 | 55.40425 | 12.08369 | 5460 ft | 250 kts | 72° |
| 2026-04-25 20:52 | 55.40856 | 12.12236 | 5206 ft | 238 kts | 72° |
| 2026-04-25 20:52 | 55.41175 | 12.15082 | 4970 ft | 236 kts | 72° |
| 2026-04-25 20:53 | 55.41491 | 12.17900 | 4742 ft | 233 kts | 72° |
| 2026-04-25 20:53 | 55.41804 | 12.20691 | 4495 ft | 232 kts | 72° |
| 2026-04-25 20:53 | 55.42113 | 12.23460 | 4260 ft | 230 kts | 72° |
| 2026-04-25 20:53 | 55.42417 | 12.26201 | 4112 ft | 226 kts | 72° |
| 2026-04-25 20:54 | 55.42719 | 12.28919 | 4043 ft | 227 kts | 72° |
| 2026-04-25 20:54 | 55.43021 | 12.31652 | 3934 ft | 227 kts | 72° |
| 2026-04-25 20:54 | 55.43324 | 12.34380 | 3822 ft | 226 kts | 71° |
| 2026-04-25 20:54 | 55.43973 | 12.36766 | 3721 ft | 210 kts | 38° |
| 2026-04-25 20:55 | 55.45084 | 12.38353 | 3665 ft | 205 kts | 36° |
| 2026-04-25 20:55 | 55.46149 | 12.40007 | 3509 ft | 206 kts | 37° |
| 2026-04-25 20:55 | 55.47202 | 12.41664 | 3241 ft | 200 kts | 36° |
| 2026-04-25 20:55 | 55.48229 | 12.43269 | 2964 ft | 195 kts | 36° |
| 2026-04-25 20:56 | 55.49233 | 12.44831 | 2701 ft | 190 kts | 35° |
| 2026-04-25 20:56 | 55.50215 | 12.46359 | 2432 ft | 185 kts | 35° |
| 2026-04-25 20:56 | 55.51151 | 12.47816 | 2176 ft | 173 kts | 34° |
| 2026-04-25 20:56 | 55.52023 | 12.49173 | 1941 ft | 162 kts | 33° |
| 2026-04-25 20:57 | 55.52857 | 12.50466 | 1751 ft | 159 kts | 33° |
| 2026-04-25 20:57 | 55.53663 | 12.51719 | 1520 ft | 146 kts | 32° |
| 2026-04-25 20:57 | 55.54391 | 12.52851 | 1311 ft | 133 kts | 32° |
| 2026-04-25 20:57 | 55.55079 | 12.53917 | 1145 ft | 131 kts | 31° |
| 2026-04-25 20:58 | 55.55770 | 12.54985 | 967 ft | 134 kts | 33° |
| 2026-04-25 20:58 | 55.56477 | 12.56086 | 778 ft | 137 kts | 34° |
| 2026-04-25 20:58 | 55.57204 | 12.57207 | 578 ft | 139 kts | 37° |
| 2026-04-25 20:58 | 55.57930 | 12.58342 | 365 ft | 138 kts | 34° |
| 2026-04-25 20:59 | 55.58639 | 12.59463 | 233 ft | 137 kts | 32° |
| 2026-04-25 20:59 | 55.59367 | 12.60581 | 42 ft | 144 kts | 37° |
| 2026-04-25 20:59 | 55.60058 | 12.61662 | 29 ft | 123 kts | 39° |
| 2026-04-25 20:59 | 55.60564 | 12.62425 | 31 ft | 73 kts | 42° |
| 2026-04-25 21:00 | 55.60846 | 12.62798 | 28 ft | 44 kts | 26° |
| 2026-04-25 21:00 | 55.60941 | 12.62855 | 24 ft | 41 kts | 10° |
| 2026-04-25 21:00 | 55.61356 | 12.63273 | 23 ft | 23 kts | 41° |
| 2026-04-25 21:01 | 55.61482 | 12.63468 | 23 ft | 27 kts | 41° |
| 2026-04-25 21:01 | 55.61630 | 12.63694 | 23 ft | 28 kts | 41° |
| 2026-04-25 21:01 | 55.61771 | 12.63913 | 23 ft | 26 kts | 41° |
| 2026-04-25 21:01 | 55.61908 | 12.64101 | 23 ft | 24 kts | 27° |
| 2026-04-25 21:02 | 55.62056 | 12.64224 | 23 ft | 23 kts | 25° |
| 2026-04-25 21:02 | 55.62182 | 12.64328 | 23 ft | 16 kts | 25° |
| 2026-04-25 21:02 | 55.62252 | 12.64347 | 21 ft | 8 kts | 324° |
| 2026-04-25 21:02 | 55.62292 | 12.64255 | 20 ft | 11 kts | 304° |
| 2026-04-25 21:03 | 55.62343 | 12.64119 | 20 ft | 17 kts | 304° |
| 2026-04-25 21:03 | 55.62412 | 12.63938 | 20 ft | 18 kts | 304° |
| 2026-04-25 21:03 | 55.62452 | 12.63848 | 21 ft | 0 kts | 314° |
| 2026-04-25 21:03 | 55.62540 | 12.63770 | 23 ft | 23 kts | 351° |
| 2026-04-25 21:04 | 55.62675 | 12.63838 | 24 ft | 11 kts | 33° |
| 2026-04-25 21:04 | 55.62739 | 12.63913 | 23 ft | 11 kts | 33° |
| 2026-04-25 21:04 | 55.62800 | 12.63988 | 23 ft | 11 kts | 43° |
| 2026-04-25 21:04 | 55.62808 | 12.64091 | 23 ft | 9 kts | 116° |
| 2026-04-25 21:05 | 55.62787 | 12.64151 | 23 ft | 0 kts | 123° |